createdAt,value
2016-09-24T00:00:14.038Z,0
2016-09-24T00:01:13.998Z,0
2016-09-24T00:02:14.317Z,0
2016-09-24T00:03:13.987Z,0
2016-09-24T00:04:13.981Z,0
2016-09-24T00:05:14.267Z,0
2016-09-24T00:06:14.271Z,0
2016-09-24T00:07:13.928Z,0
2016-09-24T00:08:13.920Z,0
2016-09-24T00:09:13.900Z,0
2016-09-24T00:10:13.893Z,0
2016-09-24T00:11:13.878Z,0
2016-09-24T00:12:13.859Z,0
2016-09-24T00:13:14.163Z,0
2016-09-24T00:14:14.161Z,0
2016-09-24T00:15:13.825Z,0
2016-09-24T00:16:14.134Z,0
2016-09-24T00:17:13.795Z,0
2016-09-24T00:18:14.304Z,0
2016-09-24T00:19:14.083Z,0
2016-09-24T00:20:13.781Z,0
2016-09-24T00:21:14.064Z,0
2016-09-24T00:22:13.738Z,0
2016-09-24T00:23:14.040Z,0
2016-09-24T00:24:13.712Z,0
2016-09-24T00:25:13.698Z,0
2016-09-24T00:26:13.995Z,0
2016-09-24T00:27:13.984Z,0
2016-09-24T00:28:13.653Z,0
2016-09-24T00:29:13.959Z,0
2016-09-24T00:30:13.950Z,0
2016-09-24T00:31:13.636Z,0
2016-09-24T00:32:13.607Z,0
2016-09-24T00:33:13.602Z,0
2016-09-24T00:34:13.582Z,0
2016-09-24T00:35:13.568Z,0
2016-09-24T00:36:13.559Z,0
2016-09-24T00:37:13.850Z,0
2016-09-24T00:38:13.533Z,0
2016-09-24T00:39:13.525Z,0
2016-09-24T00:40:13.524Z,0
2016-09-24T00:41:13.690Z,0
2016-09-24T00:42:13.790Z,0
2016-09-24T00:43:13.481Z,0
2016-09-24T00:44:13.453Z,0
2016-09-24T00:45:13.441Z,0
2016-09-24T00:46:13.428Z,0
2016-09-24T00:47:13.732Z,0
2016-09-24T00:48:13.401Z,0
2016-09-24T00:49:13.497Z,0
2016-09-24T00:50:13.691Z,0
2016-09-24T00:51:13.676Z,0
2016-09-24T00:52:13.347Z,0
2016-09-24T00:53:13.648Z,0
2016-09-24T00:54:13.326Z,0
2016-09-24T00:55:13.309Z,0
2016-09-24T00:56:13.298Z,0
2016-09-24T00:57:13.294Z,0
2016-09-24T00:58:13.586Z,0
2016-09-24T00:59:13.260Z,0
2016-09-24T01:00:13.246Z,0
2016-09-24T01:01:13.236Z,0
2016-09-24T01:02:13.532Z,0
2016-09-24T01:03:13.533Z,0
2016-09-24T01:04:13.189Z,0
2016-09-24T01:05:13.185Z,0
2016-09-24T01:06:13.178Z,0
2016-09-24T01:07:13.155Z,0
2016-09-24T01:08:13.457Z,0
2016-09-24T01:09:13.446Z,0
2016-09-24T01:10:13.119Z,0
2016-09-24T01:11:13.303Z,0
2016-09-24T01:12:13.104Z,0
2016-09-24T01:13:13.077Z,0
2016-09-24T01:14:13.384Z,0
2016-09-24T01:15:13.047Z,0
2016-09-24T01:16:13.045Z,0
2016-09-24T01:17:13.027Z,0
2016-09-24T01:18:13.017Z,0
2016-09-24T01:19:13.316Z,0
2016-09-24T01:20:12.992Z,0
2016-09-24T01:21:12.978Z,0
2016-09-24T01:22:13.370Z,0
2016-09-24T01:23:13.273Z,0
2016-09-24T01:24:12.933Z,0
2016-09-24T01:25:12.927Z,0
2016-09-24T01:26:12.912Z,0
2016-09-24T01:27:12.902Z,0
2016-09-24T01:28:13.507Z,0
2016-09-24T01:29:12.873Z,0
2016-09-24T01:30:12.859Z,0
2016-09-24T01:31:12.844Z,0
2016-09-24T01:32:13.147Z,0
2016-09-24T01:33:12.816Z,0
2016-09-24T01:34:13.123Z,0
2016-09-24T01:35:12.843Z,0
2016-09-24T01:36:12.781Z,0
2016-09-24T01:37:13.081Z,0
2016-09-24T01:38:12.758Z,0
2016-09-24T01:39:12.741Z,0
2016-09-24T01:40:12.724Z,0
2016-09-24T01:41:12.719Z,0
2016-09-24T01:42:13.008Z,0
2016-09-24T01:43:12.690Z,0
2016-09-24T01:44:13.619Z,0
2016-09-24T01:45:12.666Z,0
2016-09-24T01:46:12.663Z,0
2016-09-24T01:47:12.638Z,0
2016-09-24T01:48:12.629Z,0
2016-09-24T01:49:12.606Z,0
2016-09-24T01:50:12.598Z,0
2016-09-24T01:51:12.582Z,0
2016-09-24T01:52:12.576Z,0
2016-09-24T01:53:12.565Z,0
2016-09-24T01:54:12.545Z,0
2016-09-24T01:55:12.548Z,0
2016-09-24T01:56:12.835Z,0
2016-09-24T01:57:12.517Z,0
2016-09-24T01:58:12.801Z,0
2016-09-24T01:59:13.007Z,0
2016-09-24T02:00:12.780Z,0
2016-09-24T02:01:12.456Z,0
2016-09-24T02:02:12.754Z,0
2016-09-24T02:03:12.485Z,0
2016-09-24T02:04:12.421Z,0
2016-09-24T02:05:12.396Z,0
2016-09-24T02:06:12.704Z,0
2016-09-24T02:07:12.371Z,0
2016-09-24T02:08:12.675Z,0
2016-09-24T02:09:12.664Z,0
2016-09-24T02:10:12.352Z,0
2016-09-24T02:11:12.334Z,0
2016-09-24T02:12:12.310Z,0
2016-09-24T02:13:12.295Z,0
2016-09-24T02:14:12.287Z,0
2016-09-24T02:15:12.604Z,0
2016-09-24T02:16:12.573Z,0
2016-09-24T02:17:12.248Z,0
2016-09-24T02:18:12.231Z,0
2016-09-24T02:19:12.538Z,0
2016-09-24T02:20:12.216Z,0
2016-09-24T02:21:12.534Z,0
2016-09-24T02:22:12.193Z,0
2016-09-24T02:23:12.483Z,0
2016-09-24T02:24:12.157Z,0
2016-09-24T02:25:12.147Z,0
2016-09-24T02:26:12.128Z,0
2016-09-24T02:27:12.420Z,0
2016-09-24T02:28:12.104Z,0
2016-09-24T02:29:12.080Z,0
2016-09-24T02:30:12.075Z,0
2016-09-24T02:31:12.065Z,0
2016-09-24T02:32:12.361Z,0
2016-09-24T02:33:12.028Z,0
2016-09-24T02:34:12.022Z,0
2016-09-24T02:35:12.007Z,0
2016-09-24T02:36:11.993Z,0
2016-09-24T02:37:11.982Z,0
2016-09-24T02:38:11.967Z,0
2016-09-24T02:39:11.956Z,0
2016-09-24T02:40:11.942Z,0
2016-09-24T02:41:12.337Z,0
2016-09-24T02:42:11.916Z,0
2016-09-24T02:43:11.895Z,0
2016-09-24T02:44:11.888Z,0
2016-09-24T02:45:11.869Z,0
2016-09-24T02:46:11.871Z,0
2016-09-24T02:47:12.475Z,0
2016-09-24T02:48:11.846Z,0
2016-09-24T02:49:11.827Z,0
2016-09-24T02:50:11.811Z,0
2016-09-24T02:51:12.111Z,0
2016-09-24T02:52:12.412Z,0
2016-09-24T02:53:12.087Z,0
2016-09-24T02:54:11.762Z,0
2016-09-24T02:55:11.748Z,0
2016-09-24T02:56:12.047Z,0
2016-09-24T02:57:11.717Z,0
2016-09-24T02:58:11.722Z,0
2016-09-24T02:59:11.688Z,0
2016-09-24T03:00:11.683Z,0
2016-09-24T03:01:11.665Z,0
2016-09-24T03:02:11.669Z,0
2016-09-24T03:03:11.640Z,0
2016-09-24T03:04:11.631Z,0
2016-09-24T03:05:11.615Z,0
2016-09-24T03:06:11.597Z,0
2016-09-24T03:07:11.588Z,0
2016-09-24T03:08:11.892Z,0
2016-09-24T03:09:11.894Z,0
2016-09-24T03:10:11.856Z,0
2016-09-24T03:11:11.584Z,0
2016-09-24T03:12:11.526Z,0
2016-09-24T03:13:11.513Z,0
2016-09-24T03:14:11.496Z,0
2016-09-24T03:15:11.482Z,0
2016-09-24T03:16:11.478Z,0
2016-09-24T03:17:11.456Z,0
2016-09-24T03:18:11.442Z,0
2016-09-24T03:19:11.424Z,0
2016-09-24T03:20:11.736Z,0
2016-09-24T03:21:11.400Z,0
2016-09-24T03:22:11.390Z,0
2016-09-24T03:23:11.373Z,0
2016-09-24T03:24:11.370Z,0
2016-09-24T03:25:11.349Z,0
2016-09-24T03:26:11.966Z,0
2016-09-24T03:27:11.319Z,0
2016-09-24T03:28:11.312Z,0
2016-09-24T03:29:11.680Z,0
2016-09-24T03:30:11.283Z,0
2016-09-24T03:31:11.901Z,0
2016-09-24T03:32:11.258Z,0
2016-09-24T03:33:11.245Z,0
2016-09-24T03:34:11.235Z,0
2016-09-24T03:35:11.230Z,0
2016-09-24T03:36:11.527Z,0
2016-09-24T03:37:11.200Z,0
2016-09-24T03:38:11.805Z,0
2016-09-24T03:39:11.789Z,0
2016-09-24T03:40:11.473Z,0
2016-09-24T03:41:11.139Z,0
2016-09-24T03:42:11.448Z,0
2016-09-24T03:43:11.428Z,0
2016-09-24T03:44:11.412Z,0
2016-09-24T03:45:11.082Z,0
2016-09-24T03:46:11.088Z,0
2016-09-24T03:47:11.061Z,0
2016-09-24T03:48:11.353Z,0
2016-09-24T03:49:11.341Z,0
2016-09-24T03:50:11.020Z,0
2016-09-24T03:51:11.011Z,0
2016-09-24T03:52:10.998Z,0
2016-09-24T03:53:10.990Z,0
2016-09-24T03:54:11.484Z,0
2016-09-24T03:55:10.951Z,0
2016-09-24T03:56:10.940Z,0
2016-09-24T03:57:10.925Z,0
2016-09-24T03:58:10.920Z,0
2016-09-24T03:59:10.891Z,0
2016-09-24T04:00:10.888Z,0
2016-09-24T04:01:10.872Z,0
2016-09-24T04:02:10.870Z,0
2016-09-24T04:03:11.165Z,0
2016-09-24T04:04:10.836Z,0
2016-09-24T04:05:10.818Z,0
2016-09-24T04:06:10.802Z,0
2016-09-24T04:07:10.816Z,0
2016-09-24T04:08:10.778Z,0
2016-09-24T04:09:10.767Z,0
2016-09-24T04:10:10.752Z,0
2016-09-24T04:11:11.065Z,0
2016-09-24T04:12:11.042Z,0
2016-09-24T04:13:10.712Z,0
2016-09-24T04:14:10.701Z,0
2016-09-24T04:15:10.683Z,0
2016-09-24T04:16:10.670Z,0
2016-09-24T04:17:10.656Z,0
2016-09-24T04:18:10.652Z,0
2016-09-24T04:19:10.944Z,0
2016-09-24T04:20:10.924Z,0
2016-09-24T04:21:10.622Z,0
2016-09-24T04:22:10.592Z,0
2016-09-24T04:23:10.578Z,0
2016-09-24T04:24:10.572Z,0
2016-09-24T04:25:10.552Z,0
2016-09-24T04:26:10.541Z,0
2016-09-24T04:27:10.580Z,0
2016-09-24T04:28:10.828Z,0
2016-09-24T04:29:10.500Z,0
2016-09-24T04:30:10.794Z,0
2016-09-24T04:31:10.471Z,0
2016-09-24T04:32:10.778Z,0
2016-09-24T04:33:10.454Z,0
2016-09-24T04:34:10.438Z,0
2016-09-24T04:35:11.044Z,0
2016-09-24T04:36:10.410Z,0
2016-09-24T04:37:10.386Z,0
2016-09-24T04:38:10.386Z,0
2016-09-24T04:39:10.364Z,0
2016-09-24T04:40:10.352Z,0
2016-09-24T04:41:10.337Z,0
2016-09-24T04:42:10.523Z,0
2016-09-24T04:43:10.314Z,0
2016-09-24T04:44:10.294Z,0
2016-09-24T04:45:10.287Z,0
2016-09-24T04:46:10.270Z,0
2016-09-24T04:47:10.260Z,0
2016-09-24T04:48:10.244Z,0
2016-09-24T04:49:10.538Z,0
2016-09-24T04:50:10.215Z,0
2016-09-24T04:51:10.205Z,0
2016-09-24T04:52:10.196Z,0
2016-09-24T04:53:10.178Z,0
2016-09-24T04:54:10.160Z,4
2016-09-24T04:55:10.480Z,4
2016-09-24T04:56:10.129Z,0
2016-09-24T04:57:10.126Z,4
2016-09-24T04:58:10.421Z,8
2016-09-24T04:59:10.095Z,4
2016-09-24T05:00:10.395Z,8
2016-09-24T05:01:10.065Z,8
2016-09-24T05:02:10.056Z,12
2016-09-24T05:03:10.053Z,16
2016-09-24T05:04:10.340Z,16
2016-09-24T05:05:10.012Z,20
2016-09-24T05:06:10.010Z,24
2016-09-24T05:07:10.333Z,24
2016-09-24T05:08:10.611Z,28
2016-09-24T05:09:09.960Z,32
2016-09-24T05:10:10.263Z,36
2016-09-24T05:11:09.940Z,40
2016-09-24T05:12:09.920Z,48
2016-09-24T05:13:09.909Z,56
2016-09-24T05:14:09.893Z,64
2016-09-24T05:15:09.878Z,72
2016-09-24T05:16:09.866Z,80
2016-09-24T05:17:09.852Z,88
2016-09-24T05:18:09.838Z,100
2016-09-24T05:19:09.841Z,108
2016-09-24T05:20:09.811Z,120
2016-09-24T05:21:09.807Z,132
2016-09-24T05:22:09.791Z,144
2016-09-24T05:23:09.778Z,160
2016-09-24T05:24:10.070Z,176
2016-09-24T05:25:10.377Z,200
2016-09-24T05:26:10.046Z,216
2016-09-24T05:27:09.713Z,236
2016-09-24T05:28:10.021Z,248
2016-09-24T05:29:10.321Z,264
2016-09-24T05:30:09.678Z,280
2016-09-24T05:31:09.681Z,304
2016-09-24T05:32:09.667Z,320
2016-09-24T05:33:09.956Z,324
2016-09-24T05:34:09.619Z,332
2016-09-24T05:35:09.611Z,360
2016-09-24T05:36:09.924Z,384
2016-09-24T05:37:09.582Z,400
2016-09-24T05:38:09.564Z,424
2016-09-24T05:39:09.553Z,452
2016-09-24T05:40:09.543Z,488
2016-09-24T05:41:09.525Z,520
2016-09-24T05:42:09.523Z,560
2016-09-24T05:43:09.911Z,588
2016-09-24T05:44:09.490Z,612
2016-09-24T05:45:09.481Z,636
2016-09-24T05:46:09.460Z,648
2016-09-24T05:47:09.455Z,656
2016-09-24T05:48:09.447Z,680
2016-09-24T05:49:09.420Z,712
2016-09-24T05:50:09.413Z,752
2016-09-24T05:51:09.395Z,780
2016-09-24T05:52:09.716Z,800
2016-09-24T05:53:09.382Z,816
2016-09-24T05:54:09.680Z,832
2016-09-24T05:55:09.359Z,848
2016-09-24T05:56:09.335Z,856
2016-09-24T05:57:09.328Z,856
2016-09-24T05:58:09.307Z,888
2016-09-24T05:59:09.299Z,920
2016-09-24T06:00:09.284Z,952
2016-09-24T06:01:09.587Z,988
2016-09-24T06:02:09.270Z,1032
2016-09-24T06:03:09.244Z,1072
2016-09-24T06:04:09.238Z,1112
2016-09-24T06:05:09.535Z,1152
2016-09-24T06:06:09.211Z,1208
2016-09-24T06:07:09.511Z,1256
2016-09-24T06:08:09.499Z,1316
2016-09-24T06:09:09.177Z,1368
2016-09-24T06:10:09.152Z,1400
2016-09-24T06:11:09.461Z,1412
2016-09-24T06:12:09.134Z,1420
2016-09-24T06:13:09.430Z,1492
2016-09-24T06:14:09.112Z,1536
2016-09-24T06:15:09.097Z,1572
2016-09-24T06:16:09.395Z,1616
2016-09-24T06:17:09.382Z,1652
2016-09-24T06:18:09.056Z,1668
2016-09-24T06:19:09.353Z,1632
2016-09-24T06:20:09.339Z,1528
2016-09-24T06:21:09.333Z,1524
2016-09-24T06:22:09.009Z,1560
2016-09-24T06:23:09.306Z,1572
2016-09-24T06:24:08.987Z,1640
2016-09-24T06:25:08.979Z,1672
2016-09-24T06:26:08.952Z,1716
2016-09-24T06:27:08.940Z,1748
2016-09-24T06:28:08.930Z,1788
2016-09-24T06:29:09.240Z,1812
2016-09-24T06:30:09.239Z,1840
2016-09-24T06:31:08.893Z,1888
2016-09-24T06:32:08.873Z,1916
2016-09-24T06:33:08.882Z,1936
2016-09-24T06:34:09.176Z,1976
2016-09-24T06:35:09.487Z,2004
2016-09-24T06:36:09.149Z,2012
2016-09-24T06:37:08.814Z,2016
2016-09-24T06:38:09.132Z,2024
2016-09-24T06:39:09.109Z,2040
2016-09-24T06:40:08.779Z,2068
2016-09-24T06:41:08.775Z,2084
2016-09-24T06:42:09.266Z,2068
2016-09-24T06:43:09.375Z,2056
2016-09-24T06:44:08.732Z,2092
2016-09-24T06:45:08.722Z,2184
2016-09-24T06:46:08.701Z,2236
2016-09-24T06:47:08.689Z,2276
2016-09-24T06:48:08.680Z,2304
2016-09-24T06:49:08.715Z,2332
2016-09-24T06:50:08.660Z,2356
2016-09-24T06:51:08.955Z,2388
2016-09-24T06:52:08.943Z,2408
2016-09-24T06:53:08.943Z,2428
2016-09-24T06:54:08.658Z,2452
2016-09-24T06:55:09.245Z,2472
2016-09-24T06:56:08.899Z,2492
2016-09-24T06:57:08.566Z,2516
2016-09-24T06:58:08.564Z,2532
2016-09-24T06:59:08.544Z,2556
2016-09-24T07:00:09.084Z,2572
2016-09-24T07:01:08.526Z,2584
2016-09-24T07:02:08.822Z,2592
2016-09-24T07:03:08.504Z,2600
2016-09-24T07:04:08.493Z,2612
2016-09-24T07:05:08.791Z,2632
2016-09-24T07:06:08.461Z,2644
2016-09-24T07:07:08.771Z,2664
2016-09-24T07:08:08.759Z,2672
2016-09-24T07:09:08.431Z,2676
2016-09-24T07:10:08.422Z,2664
2016-09-24T07:11:08.432Z,2636
2016-09-24T07:12:08.402Z,2600
2016-09-24T07:13:08.707Z,2596
2016-09-24T07:14:08.686Z,2608
2016-09-24T07:15:08.361Z,2628
2016-09-24T07:16:08.659Z,2684
2016-09-24T07:17:08.357Z,2744
2016-09-24T07:18:08.327Z,2800
2016-09-24T07:19:08.319Z,2832
2016-09-24T07:20:08.612Z,2856
2016-09-24T07:21:08.287Z,2876
2016-09-24T07:22:08.290Z,2904
2016-09-24T07:23:08.277Z,2936
2016-09-24T07:24:08.576Z,2964
2016-09-24T07:25:08.560Z,2980
2016-09-24T07:26:08.248Z,2996
2016-09-24T07:27:08.228Z,3012
2016-09-24T07:28:08.213Z,3048
2016-09-24T07:29:08.518Z,3072
2016-09-24T07:30:08.209Z,3088
2016-09-24T07:31:08.181Z,3108
2016-09-24T07:32:08.167Z,3120
2016-09-24T07:33:08.470Z,3132
2016-09-24T07:34:08.149Z,3140
2016-09-24T07:35:08.193Z,3148
2016-09-24T07:36:08.130Z,3164
2016-09-24T07:37:08.438Z,3172
2016-09-24T07:38:08.106Z,3184
2016-09-24T07:39:08.412Z,3188
2016-09-24T07:40:08.397Z,3176
2016-09-24T07:41:08.392Z,3192
2016-09-24T07:42:08.070Z,3204
2016-09-24T07:43:08.365Z,3220
2016-09-24T07:44:08.040Z,3284
2016-09-24T07:45:08.341Z,3332
2016-09-24T07:46:08.021Z,3372
2016-09-24T07:47:08.342Z,3420
2016-09-24T07:48:07.996Z,3476
2016-09-24T07:49:07.977Z,3528
2016-09-24T07:50:07.976Z,3612
2016-09-24T07:51:08.279Z,3700
2016-09-24T07:52:07.958Z,3800
2016-09-24T07:53:07.943Z,3876
2016-09-24T07:54:08.242Z,3956
2016-09-24T07:55:08.245Z,3992
2016-09-24T07:56:07.912Z,4044
2016-09-24T07:57:07.905Z,4084
2016-09-24T07:58:07.891Z,4056
2016-09-24T07:59:08.184Z,4036
2016-09-24T08:00:07.880Z,4028
2016-09-24T08:01:07.863Z,4072
2016-09-24T08:02:08.170Z,4164
2016-09-24T08:03:08.151Z,4264
2016-09-24T08:04:07.829Z,4268
2016-09-24T08:05:07.815Z,6324
2016-09-24T08:06:07.806Z,7284
2016-09-24T08:07:07.795Z,5752
2016-09-24T08:08:08.101Z,5780
2016-09-24T08:09:07.776Z,4876
2016-09-24T08:10:07.770Z,4364
2016-09-24T08:11:08.086Z,4328
2016-09-24T08:12:08.065Z,4316
2016-09-24T08:13:08.055Z,4308
2016-09-24T08:14:07.728Z,4380
2016-09-24T08:15:07.717Z,4396
2016-09-24T08:16:07.722Z,4400
2016-09-24T08:17:08.012Z,4436
2016-09-24T08:18:08.015Z,4396
2016-09-24T08:19:07.683Z,4356
2016-09-24T08:20:08.012Z,4352
2016-09-24T08:21:07.678Z,4380
2016-09-24T08:22:07.655Z,4404
2016-09-24T08:23:08.002Z,4392
2016-09-24T08:24:07.962Z,4392
2016-09-24T08:25:07.892Z,4400
2016-09-24T08:26:07.637Z,4400
2016-09-24T08:27:07.604Z,4428
2016-09-24T08:28:07.914Z,4452
2016-09-24T08:29:07.587Z,4488
2016-09-24T08:30:07.626Z,4564
2016-09-24T08:31:07.574Z,4552
2016-09-24T08:32:07.567Z,4564
2016-09-24T08:33:07.867Z,4592
2016-09-24T08:34:07.552Z,4628
2016-09-24T08:35:07.841Z,4820
2016-09-24T08:36:07.839Z,4792
2016-09-24T08:37:07.525Z,4692
2016-09-24T08:38:07.878Z,4620
2016-09-24T08:39:07.500Z,4616
2016-09-24T08:40:07.488Z,4656
2016-09-24T08:41:07.494Z,4660
2016-09-24T08:42:07.670Z,4788
2016-09-24T08:43:07.794Z,4780
2016-09-24T08:44:07.455Z,4732
2016-09-24T08:45:07.783Z,4792
2016-09-24T08:46:07.438Z,4836
2016-09-24T08:47:07.423Z,4880
2016-09-24T08:48:07.424Z,4956
2016-09-24T08:49:07.726Z,5048
2016-09-24T08:50:07.744Z,5148
2016-09-24T08:51:07.393Z,5208
2016-09-24T08:52:07.714Z,5204
2016-09-24T08:53:07.396Z,5176
2016-09-24T08:54:07.371Z,5192
2016-09-24T08:55:07.368Z,5284
2016-09-24T08:56:07.351Z,5256
2016-09-24T08:57:07.344Z,5260
2016-09-24T08:58:07.334Z,5268
2016-09-24T08:59:07.319Z,5284
2016-09-24T09:00:07.682Z,5296
2016-09-24T09:01:07.622Z,5332
2016-09-24T09:02:07.301Z,5364
2016-09-24T09:03:07.603Z,5388
2016-09-24T09:04:07.286Z,5412
2016-09-24T09:05:07.605Z,5444
2016-09-24T09:06:07.591Z,5464
2016-09-24T09:07:07.287Z,5584
2016-09-24T09:08:07.250Z,5548
2016-09-24T09:09:07.551Z,5584
2016-09-24T09:10:07.234Z,5568
2016-09-24T09:11:07.233Z,5628
2016-09-24T09:12:07.531Z,5676
2016-09-24T09:13:07.212Z,5724
2016-09-24T09:14:07.198Z,5772
2016-09-24T09:15:07.193Z,5808
2016-09-24T09:16:07.511Z,5840
2016-09-24T09:17:07.177Z,5900
2016-09-24T09:18:07.168Z,5880
2016-09-24T09:19:07.474Z,5852
2016-09-24T09:20:07.161Z,5884
2016-09-24T09:21:07.468Z,5960
2016-09-24T09:22:07.144Z,6000
2016-09-24T09:23:07.133Z,6032
2016-09-24T09:24:07.120Z,6032
2016-09-24T09:25:07.146Z,6048
2016-09-24T09:26:07.104Z,6068
2016-09-24T09:27:07.101Z,6104
2016-09-24T09:28:07.719Z,6092
2016-09-24T09:29:07.084Z,6128
2016-09-24T09:30:07.391Z,6052
2016-09-24T09:31:07.062Z,5940
2016-09-24T09:32:07.063Z,6000
2016-09-24T09:33:07.055Z,5972
2016-09-24T09:34:07.046Z,6388
2016-09-24T09:35:07.046Z,6020
2016-09-24T09:36:07.344Z,6064
2016-09-24T09:37:07.026Z,6492
2016-09-24T09:38:07.014Z,6044
2016-09-24T09:39:07.007Z,6012
2016-09-24T09:40:07.005Z,5964
2016-09-24T09:41:06.993Z,6108
2016-09-24T09:42:07.001Z,6088
2016-09-24T09:43:06.984Z,6132
2016-09-24T09:44:07.280Z,6124
2016-09-24T09:45:06.970Z,6164
2016-09-24T09:46:07.269Z,6240
2016-09-24T09:47:06.950Z,6340
2016-09-24T09:48:07.258Z,6412
2016-09-24T09:49:06.931Z,6452
2016-09-24T09:50:06.940Z,6504
2016-09-24T09:51:06.937Z,6572
2016-09-24T09:52:07.225Z,6616
2016-09-24T09:53:06.906Z,6816
2016-09-24T09:54:06.893Z,6728
2016-09-24T09:55:07.524Z,7428
2016-09-24T09:56:06.898Z,7688
2016-09-24T09:57:06.885Z,8188
2016-09-24T09:58:06.872Z,8364
2016-09-24T09:59:06.864Z,8376
2016-09-24T10:00:06.855Z,7436
2016-09-24T10:01:06.898Z,7864
2016-09-24T10:02:06.841Z,7660
2016-09-24T10:03:06.831Z,7488
2016-09-24T10:04:06.827Z,7520
2016-09-24T10:05:06.827Z,7576
2016-09-24T10:06:06.819Z,7684
2016-09-24T10:07:06.807Z,7768
2016-09-24T10:08:06.796Z,7784
2016-09-24T10:09:06.799Z,7776
2016-09-24T10:10:06.790Z,7884
2016-09-24T10:11:07.098Z,7772
2016-09-24T10:12:06.778Z,7596
2016-09-24T10:13:07.080Z,7504
2016-09-24T10:14:06.766Z,7508
2016-09-24T10:15:06.755Z,7592
2016-09-24T10:16:06.806Z,7804
2016-09-24T10:17:06.741Z,7852
2016-09-24T10:18:07.046Z,7848
2016-09-24T10:19:06.730Z,7852
2016-09-24T10:20:06.724Z,9276
2016-09-24T10:21:07.030Z,10548
2016-09-24T10:22:06.713Z,8500
2016-09-24T10:23:07.010Z,7860
2016-09-24T10:24:06.707Z,7900
2016-09-24T10:25:06.693Z,7900
2016-09-24T10:26:06.757Z,7892
2016-09-24T10:27:06.682Z,7868
2016-09-24T10:28:07.013Z,8000
2016-09-24T10:29:06.666Z,8492
2016-09-24T10:30:06.984Z,8768
2016-09-24T10:31:06.965Z,8184
2016-09-24T10:32:06.671Z,8324
2016-09-24T10:33:06.637Z,8396
2016-09-24T10:34:06.971Z,9356
2016-09-24T10:35:06.628Z,9064
2016-09-24T10:36:06.933Z,9160
2016-09-24T10:37:06.614Z,10456
2016-09-24T10:38:06.923Z,10248
2016-09-24T10:39:06.913Z,29920
2016-09-24T10:40:06.590Z,11412
2016-09-24T10:41:06.590Z,9840
2016-09-24T10:42:06.581Z,13248
2016-09-24T10:43:06.579Z,18016
2016-09-24T10:44:06.573Z,20768
2016-09-24T10:45:06.568Z,13924
2016-09-24T10:46:06.559Z,24128
2016-09-24T10:47:06.557Z,35552
2016-09-24T10:48:06.548Z,28576
2016-09-24T10:49:06.551Z,20768
2016-09-24T10:50:06.858Z,12340
2016-09-24T10:51:06.531Z,11040
2016-09-24T10:52:06.526Z,11716
2016-09-24T10:53:06.521Z,12256
2016-09-24T10:54:07.048Z,15620
2016-09-24T10:55:06.831Z,21312
2016-09-24T10:56:06.557Z,20544
2016-09-24T10:57:07.131Z,24000
2016-09-24T10:58:06.499Z,42240
2016-09-24T10:59:06.489Z,23168
2016-09-24T11:00:06.800Z,11212
2016-09-24T11:01:06.482Z,11992
2016-09-24T11:02:06.490Z,28256
2016-09-24T11:03:06.470Z,30336
2016-09-24T11:04:06.472Z,28800
2016-09-24T11:05:06.459Z,20416
2016-09-24T11:06:06.471Z,17312
2016-09-24T11:07:06.764Z,19712
2016-09-24T11:08:06.761Z,21728
2016-09-24T11:09:06.851Z,15060
2016-09-24T11:10:06.748Z,10808
2016-09-24T11:11:06.436Z,9476
2016-09-24T11:12:06.745Z,8340
2016-09-24T11:13:06.741Z,8580
2016-09-24T11:14:06.414Z,9496
2016-09-24T11:15:06.416Z,11124
2016-09-24T11:16:06.406Z,13716
2016-09-24T11:17:07.396Z,18752
2016-09-24T11:18:06.414Z,17728
2016-09-24T11:19:06.720Z,17792
2016-09-24T11:20:06.391Z,18400
2016-09-24T11:21:06.386Z,19200
2016-09-24T11:22:06.701Z,16020
2016-09-24T11:23:07.001Z,15804
2016-09-24T11:24:06.371Z,19520
2016-09-24T11:25:06.368Z,19360
2016-09-24T11:26:06.671Z,21312
2016-09-24T11:27:06.361Z,21312
2016-09-24T11:28:06.679Z,20704
2016-09-24T11:29:06.669Z,15836
2016-09-24T11:30:06.344Z,15192
2016-09-24T11:31:06.336Z,14532
2016-09-24T11:32:06.341Z,24960
2016-09-24T11:33:06.349Z,57376
2016-09-24T11:34:06.345Z,14208
2016-09-24T11:35:06.328Z,33024
2016-09-24T11:36:06.322Z,26976
2016-09-24T11:37:06.316Z,14288
2016-09-24T11:38:06.370Z,16136
2016-09-24T11:39:06.313Z,26592
2016-09-24T11:40:06.303Z,12460
2016-09-24T11:41:06.301Z,12244
2016-09-24T11:42:06.633Z,14468
2016-09-24T11:43:06.385Z,25600
2016-09-24T11:44:06.609Z,30240
2016-09-24T11:45:06.602Z,38848
2016-09-24T11:46:06.919Z,40160
2016-09-24T11:47:06.282Z,20896
2016-09-24T11:48:06.274Z,14088
2016-09-24T11:49:07.275Z,12164
2016-09-24T11:50:06.276Z,11564
2016-09-24T11:51:06.323Z,11124
2016-09-24T11:52:06.260Z,11004
2016-09-24T11:53:06.649Z,11292
2016-09-24T11:54:06.349Z,11720
2016-09-24T11:55:06.279Z,13012
2016-09-24T11:56:06.563Z,15448
2016-09-24T11:57:06.246Z,57824
2016-09-24T11:58:06.552Z,62784
2016-09-24T11:59:06.237Z,61664
2016-09-24T12:00:06.551Z,67424
2016-09-24T12:01:06.224Z,70848
2016-09-24T12:02:06.543Z,74912
2016-09-24T12:03:06.218Z,19328
2016-09-24T12:04:06.228Z,16552
2016-09-24T12:05:06.527Z,18016
2016-09-24T12:06:06.233Z,58240
2016-09-24T12:07:06.524Z,54016
2016-09-24T12:08:06.523Z,37408
2016-09-24T12:09:06.220Z,22432
2016-09-24T12:10:06.522Z,14996
2016-09-24T12:11:06.558Z,15164
2016-09-24T12:12:06.212Z,17440
2016-09-24T12:13:06.721Z,20576
2016-09-24T12:14:06.533Z,20160
2016-09-24T12:15:06.194Z,32384
2016-09-24T12:16:06.551Z,77152
2016-09-24T12:17:06.192Z,81856
2016-09-24T12:18:06.197Z,81984
2016-09-24T12:19:06.537Z,79872
2016-09-24T12:20:06.504Z,73664
2016-09-24T12:21:06.203Z,64736
2016-09-24T12:22:06.189Z,55776
2016-09-24T12:23:06.512Z,64704
2016-09-24T12:24:06.191Z,66400
2016-09-24T12:25:06.813Z,69664
2016-09-24T12:26:06.191Z,65344
2016-09-24T12:27:06.193Z,59808
2016-09-24T12:28:06.183Z,59808
2016-09-24T12:29:06.181Z,55776
2016-09-24T12:30:06.491Z,53568
2016-09-24T12:31:06.201Z,59296
2016-09-24T12:32:06.196Z,64096
2016-09-24T12:33:06.184Z,60608
2016-09-24T12:34:06.811Z,62816
2016-09-24T12:35:06.205Z,60544
2016-09-24T12:36:06.504Z,58496
2016-09-24T12:37:06.188Z,58432
2016-09-24T12:38:06.196Z,64704
2016-09-24T12:39:06.549Z,65568
2016-09-24T12:40:06.208Z,55872
2016-09-24T12:41:06.533Z,62336
2016-09-24T12:42:06.416Z,56544
2016-09-24T12:43:06.210Z,57536
2016-09-24T12:44:06.211Z,51680
2016-09-24T12:45:06.209Z,47616
2016-09-24T12:46:06.206Z,48608
2016-09-24T12:47:06.211Z,52832
2016-09-24T12:48:06.204Z,64192
2016-09-24T12:49:06.209Z,55392
2016-09-24T12:50:06.213Z,61952
2016-09-24T12:51:06.538Z,67808
2016-09-24T12:52:06.215Z,69440
2016-09-24T12:53:06.216Z,69088
2016-09-24T12:54:06.218Z,67328
2016-09-24T12:55:06.219Z,71104
2016-09-24T12:56:06.231Z,17920
2016-09-24T12:57:06.226Z,56064
2016-09-24T12:58:06.853Z,67680
2016-09-24T12:59:06.228Z,57792
2016-09-24T13:00:06.226Z,68288
2016-09-24T13:01:06.236Z,68064
2016-09-24T13:02:06.239Z,66432
2016-09-24T13:03:06.237Z,64896
2016-09-24T13:04:06.244Z,65120
2016-09-24T13:05:06.240Z,62368
2016-09-24T13:06:06.236Z,62496
2016-09-24T13:07:06.884Z,60256
2016-09-24T13:08:06.242Z,59232
2016-09-24T13:09:06.258Z,59168
2016-09-24T13:10:06.246Z,58752
2016-09-24T13:11:06.251Z,59616
2016-09-24T13:12:06.560Z,60448
2016-09-24T13:13:06.250Z,61216
2016-09-24T13:14:06.260Z,59808
2016-09-24T13:15:06.890Z,56096
2016-09-24T13:16:06.258Z,58176
2016-09-24T13:17:06.572Z,46464
2016-09-24T13:18:06.260Z,45952
2016-09-24T13:19:06.261Z,48416
2016-09-24T13:20:06.261Z,45216
2016-09-24T13:21:06.268Z,45056
2016-09-24T13:22:06.272Z,47808
2016-09-24T13:23:06.588Z,48800
2016-09-24T13:24:06.598Z,48128
2016-09-24T13:25:06.274Z,21408
2016-09-24T13:26:06.587Z,40192
2016-09-24T13:27:06.295Z,47104
2016-09-24T13:28:06.602Z,46560
2016-09-24T13:29:06.289Z,44224
2016-09-24T13:30:06.290Z,43584
2016-09-24T13:31:06.292Z,43168
2016-09-24T13:32:06.292Z,44480
2016-09-24T13:33:06.284Z,44320
2016-09-24T13:34:06.294Z,45312
2016-09-24T13:35:06.918Z,45664
2016-09-24T13:36:06.293Z,46976
2016-09-24T13:37:06.942Z,46048
2016-09-24T13:38:06.616Z,46432
2016-09-24T13:39:06.298Z,47520
2016-09-24T13:40:06.304Z,47552
2016-09-24T13:41:06.619Z,48896
2016-09-24T13:42:06.304Z,49536
2016-09-24T13:43:06.296Z,48896
2016-09-24T13:44:06.310Z,47168
2016-09-24T13:45:06.622Z,44608